Viimsi — ES2084 — position and weather

sailwx.info

Track history (hours):
 
Tides and Currents Weather Stations Pressure Air Temp Water Temp Dewpoint Dewpoint Depression Visibility Wind Speed Wind Dir Waves Ship Positions

Viimsi

Last reported at 2014-Jul-24 06:12 UTC. Time now 2014-Jul-24 15:23 UTC.
Position N 59°22' E 023°54'.

Length 78 m; draft 4.5 m.

Type: Ship. MMSI: 276297000.

Date/timePositionNaut miles runAvg speedWind from/ knotsBaromVisibWave heightAir tempDewpointWater temp
2014-Jul-24 06:12N 59°22' E 023°54'0 0.3
2014-Jul-24 05:11N 59°22' E 023°54'  
2014-Jul-21 02:27N 59°28' E 024°43'7 7.2
2014-Jul-21 01:31N 59°34' E 024°41'4 4.0
2014-Jul-21 00:33N 59°36' E 024°48'1 0.5
2014-Jul-20 23:27N 59°36' E 024°48'1 0.1
2014-Jul-20 15:32N 59°35' E 024°48'0 0.0
2014-Jul-20 14:33N 59°35' E 024°48'9 0.8
2014-Jul-20 03:33N 59°28' E 024°39'3 2.9
2014-Jul-20 02:33N 59°29' E 024°44'3 2.9
2014-Jul-20 01:34N 59°27' E 024°46'0 0.0
2014-Jul-20 00:33N 59°27' E 024°46'0 0.0
2014-Jul-19 23:34N 59°27' E 024°46'0 0.0
2014-Jul-19 22:33N 59°27' E 024°46'0 0.0
2014-Jul-19 21:34N 59°27' E 024°46'3 3.1
2014-Jul-19 20:34N 59°29' E 024°44'22 4.2
2014-Jul-19 15:25N 59°25' E 024°02'5 6.1
2014-Jul-19 14:33N 59°20' E 024°04'6 0.7
2014-Jul-19 06:23N 59°26' E 024°03'14 7.7
2014-Jul-19 04:33N 59°30' E 024°29'7 7.3
2014-Jul-19 03:33N 59°30' E 024°43'3 0.5
2014-Jul-18 21:31N 59°27' E 024°46'1 0.8
2014-Jul-18 20:32N 59°28' E 024°45'3 1.1
2014-Jul-18 17:31N 59°30' E 024°41'6 0.3
2014-Jul-17 22:14N 59°35' E 024°48'0 0.1
2014-Jul-17 21:25N 59°35' E 024°48'0 0.0
2014-Jul-17 20:34N 59°35' E 024°48'0 0.0
2014-Jul-17 18:06N 59°35' E 024°48'7 7.2
2014-Jul-17 17:10N 59°38' E 024°36'21 7.8
2014-Jul-17 14:25N 59°25' E 024°02'5 0.1
2014-Jul-15 18:07N 59°22' E 023°55'0 0.0
2014-Jul-15 17:32N 59°22' E 023°55'2 0.1
2014-Jul-14 17:32N 59°24' E 023°58'6 1.5
2014-Jul-14 13:13N 59°27' E 024°09'  
Track history (hours):
 
Tides and Currents Weather Stations Pressure Air Temp Water Temp Dewpoint Dewpoint Depression Visibility Wind Speed Wind Dir Waves Ship Positions

Viimsi

Last reported at 2014-Jul-24 06:12 UTC. Time now 2014-Jul-24 15:23 UTC.
Position N 59°22' E 023°54'.

Length 78 m; draft 4.5 m.

Type: Ship. MMSI: 276297000.

Date/timePositionNaut miles runAvg speedWind from/ knotsBaromVisibWave heightAir tempDewpointWater temp
2014-Jul-24 06:12N 59°22' E 023°54'0 0.3
2014-Jul-24 05:11N 59°22' E 023°54'  
2014-Jul-21 02:27N 59°28' E 024°43'7 7.2
2014-Jul-21 01:31N 59°34' E 024°41'4 4.0
2014-Jul-21 00:33N 59°36' E 024°48'1 0.5
2014-Jul-20 23:27N 59°36' E 024°48'1 0.1
2014-Jul-20 15:32N 59°35' E 024°48'0 0.0
2014-Jul-20 14:33N 59°35' E 024°48'9 0.8
2014-Jul-20 03:33N 59°28' E 024°39'3 2.9
2014-Jul-20 02:33N 59°29' E 024°44'3 2.9
2014-Jul-20 01:34N 59°27' E 024°46'0 0.0
2014-Jul-20 00:33N 59°27' E 024°46'0 0.0
2014-Jul-19 23:34N 59°27' E 024°46'0 0.0
2014-Jul-19 22:33N 59°27' E 024°46'0 0.0
2014-Jul-19 21:34N 59°27' E 024°46'3 3.1
2014-Jul-19 20:34N 59°29' E 024°44'22 4.2
2014-Jul-19 15:25N 59°25' E 024°02'5 6.1
2014-Jul-19 14:33N 59°20' E 024°04'6 0.7
2014-Jul-19 06:23N 59°26' E 024°03'14 7.7
2014-Jul-19 04:33N 59°30' E 024°29'7 7.3
2014-Jul-19 03:33N 59°30' E 024°43'3 0.5
2014-Jul-18 21:31N 59°27' E 024°46'1 0.8
2014-Jul-18 20:32N 59°28' E 024°45'3 1.1
2014-Jul-18 17:31N 59°30' E 024°41'6 0.3
2014-Jul-17 22:14N 59°35' E 024°48'0 0.1
2014-Jul-17 21:25N 59°35' E 024°48'0 0.0
2014-Jul-17 20:34N 59°35' E 024°48'0 0.0
2014-Jul-17 18:06N 59°35' E 024°48'7 7.2
2014-Jul-17 17:10N 59°38' E 024°36'21 7.8
2014-Jul-17 14:25N 59°25' E 024°02'5 0.1
2014-Jul-15 18:07N 59°22' E 023°55'0 0.0
2014-Jul-15 17:32N 59°22' E 023°55'2 0.1
2014-Jul-14 17:32N 59°24' E 023°58'6 1.5
2014-Jul-14 13:13N 59°27' E 024°09'  

Dump ship's entire track history